sensor_id;sensor_type;location;lat;lon;timestamp;pressure;altitude;pressure_sealevel;temperature;humidity
74637;BME280;63141;54.616;39.754;2023-03-03T00:01:54;98902.75;;;23.15;31.59
74637;BME280;63141;54.616;39.754;2023-03-03T00:04:55;98897.44;;;23.15;31.61
74637;BME280;63141;54.616;39.754;2023-03-03T00:07:59;98889.47;;;23.15;31.54
74637;BME280;63141;54.616;39.754;2023-03-03T00:11:01;98884.16;;;23.15;31.52
74637;BME280;63141;54.616;39.754;2023-03-03T00:14:17;98878.84;;;23.15;31.52
74637;BME280;63141;54.616;39.754;2023-03-03T00:23:38;98880.66;;;23.14;31.50
74637;BME280;63141;54.616;39.754;2023-03-03T00:26:44;98878.09;;;23.13;31.41
74637;BME280;63141;54.616;39.754;2023-03-03T00:29:48;98880.75;;;23.13;31.30
74637;BME280;63141;54.616;39.754;2023-03-03T00:32:51;98867.47;;;23.13;31.37
74637;BME280;63141;54.616;39.754;2023-03-03T00:35:58;98866.63;;;23.12;31.44
74637;BME280;63141;54.616;39.754;2023-03-03T00:42:21;98871.94;;;23.12;31.37
74637;BME280;63141;54.616;39.754;2023-03-03T00:45:43;98861.31;;;23.12;31.47
74637;BME280;63141;54.616;39.754;2023-03-03T00:48:47;98859.63;;;23.11;31.43
74637;BME280;63141;54.616;39.754;2023-03-03T00:51:49;98853.44;;;23.11;31.59
74637;BME280;63141;54.616;39.754;2023-03-03T00:54:50;98855.16;;;23.12;31.37
74637;BME280;63141;54.616;39.754;2023-03-03T00:57:52;98853.44;;;23.11;31.35
74637;BME280;63141;54.616;39.754;2023-03-03T01:01:01;98848.13;;;23.11;31.31
74637;BME280;63141;54.616;39.754;2023-03-03T01:04:14;98837.50;;;23.11;31.21
74637;BME280;63141;54.616;39.754;2023-03-03T01:07:15;98833.16;;;23.10;31.12
74637;BME280;63141;54.616;39.754;2023-03-03T01:10:17;98833.06;;;23.11;31.08
74637;BME280;63141;54.616;39.754;2023-03-03T01:13:21;98826.03;;;23.10;31.01
74637;BME280;63141;54.616;39.754;2023-03-03T01:16:23;98811.81;;;23.11;31.15
74637;BME280;63141;54.616;39.754;2023-03-03T01:19:25;98808.28;;;23.11;31.08
74637;BME280;63141;54.616;39.754;2023-03-03T01:22:26;98818.06;;;23.10;31.17
74637;BME280;63141;54.616;39.754;2023-03-03T01:25:27;98815.41;;;23.10;31.03
74637;BME280;63141;54.616;39.754;2023-03-03T01:28:29;98826.88;;;23.11;30.77
74637;BME280;63141;54.616;39.754;2023-03-03T01:31:30;98821.56;;;23.11;30.92
74637;BME280;63141;54.616;39.754;2023-03-03T01:34:37;98816.25;;;23.11;30.82
74637;BME280;63141;54.616;39.754;2023-03-03T01:37:38;98810.09;;;23.10;30.81
74637;BME280;63141;54.616;39.754;2023-03-03T01:40:40;98805.63;;;23.11;30.69
74637;BME280;63141;54.616;39.754;2023-03-03T01:43:46;98796.81;;;23.10;30.59
74637;BME280;63141;54.616;39.754;2023-03-03T01:46:54;98814.56;;;23.10;30.64
74637;BME280;63141;54.616;39.754;2023-03-03T01:50:03;98821.56;;;23.11;30.56
74637;BME280;63141;54.616;39.754;2023-03-03T01:53:05;98819.88;;;23.10;30.50
74637;BME280;63141;54.616;39.754;2023-03-03T01:56:10;98811.91;;;23.10;30.33
74637;BME280;63141;54.616;39.754;2023-03-03T01:59:26;98819.88;;;23.10;30.43
74637;BME280;63141;54.616;39.754;2023-03-03T02:02:31;98816.38;;;23.09;30.39
74637;BME280;63141;54.616;39.754;2023-03-03T02:05:34;98807.53;;;23.09;30.31
74637;BME280;63141;54.616;39.754;2023-03-03T02:08:48;98802.22;;;23.09;30.43
74637;BME280;63141;54.616;39.754;2023-03-03T02:11:54;98794.25;;;23.09;30.38
74637;BME280;63141;54.616;39.754;2023-03-03T02:14:57;98789.81;;;23.09;30.25
74637;BME280;63141;54.616;39.754;2023-03-03T02:18:02;98794.25;;;23.09;30.23
74637;BME280;63141;54.616;39.754;2023-03-03T02:21:07;98786.28;;;23.09;30.21
74637;BME280;63141;54.616;39.754;2023-03-03T02:24:22;98786.28;;;23.09;30.19
74637;BME280;63141;54.616;39.754;2023-03-03T02:27:28;98774.81;;;23.08;30.15
74637;BME280;63141;54.616;39.754;2023-03-03T02:30:36;98773.97;;;23.08;30.00
74637;BME280;63141;54.616;39.754;2023-03-03T02:33:40;98773.97;;;23.08;30.13
74637;BME280;63141;54.616;39.754;2023-03-03T02:36:41;98766.00;;;23.08;29.97
74637;BME280;63141;54.616;39.754;2023-03-03T02:39:43;98767.69;;;23.09;29.96
74637;BME280;63141;54.616;39.754;2023-03-03T02:42:45;98765.16;;;23.07;29.98
74637;BME280;63141;54.616;39.754;2023-03-03T02:45:47;98778.31;;;23.09;30.02
74637;BME280;63141;54.616;39.754;2023-03-03T02:48:48;98770.34;;;23.09;29.99
74637;BME280;63141;54.616;39.754;2023-03-03T02:51:50;98773.00;;;23.09;30.02
74637;BME280;63141;54.616;39.754;2023-03-03T02:54:51;98770.34;;;23.09;30.04
74637;BME280;63141;54.616;39.754;2023-03-03T02:57:52;98776.53;;;23.09;29.91
74637;BME280;63141;54.616;39.754;2023-03-03T03:00:54;98774.81;;;23.08;29.83
74637;BME280;63141;54.616;39.754;2023-03-03T03:04:00;98776.53;;;23.09;29.83
74637;BME280;63141;54.616;39.754;2023-03-03T03:07:02;98765.03;;;23.09;29.95
74637;BME280;63141;54.616;39.754;2023-03-03T03:10:06;98770.34;;;23.09;29.69
74637;BME280;63141;54.616;39.754;2023-03-03T03:13:10;98765.03;;;23.09;29.65
74637;BME280;63141;54.616;39.754;2023-03-03T03:16:12;98765.03;;;23.09;29.69
74637;BME280;63141;54.616;39.754;2023-03-03T03:19:14;98759.72;;;23.09;29.66
74637;BME280;63141;54.616;39.754;2023-03-03T03:22:16;98765.03;;;23.09;29.72
74637;BME280;63141;54.616;39.754;2023-03-03T03:25:18;98759.72;;;23.09;29.78
74637;BME280;63141;54.616;39.754;2023-03-03T03:28:19;98757.06;;;23.09;29.55
74637;BME280;63141;54.616;39.754;2023-03-03T03:31:21;98758.03;;;23.08;29.33
74637;BME280;63141;54.616;39.754;2023-03-03T03:34:23;98749.31;;;23.06;29.24
74637;BME280;63141;54.616;39.754;2023-03-03T03:37:25;98749.53;;;23.03;29.19
74637;BME280;63141;54.616;39.754;2023-03-03T03:40:27;98747.81;;;23.02;29.13
74637;BME280;63141;54.616;39.754;2023-03-03T03:43:28;98742.63;;;23.00;28.99
74637;BME280;63141;54.616;39.754;2023-03-03T03:46:30;98744.41;;;22.99;28.83
74637;BME280;63141;54.616;39.754;2023-03-03T03:49:31;98745.34;;;22.98;28.82
74637;BME280;63141;54.616;39.754;2023-03-03T03:52:33;98740.97;;;22.97;28.70
74637;BME280;63141;54.616;39.754;2023-03-03T03:55:35;98739.25;;;22.96;28.65
74637;BME280;63141;54.616;39.754;2023-03-03T03:58:40;98733.13;;;22.96;28.63
74637;BME280;63141;54.616;39.754;2023-03-03T04:01:45;98718.88;;;22.97;28.87
74637;BME280;63141;54.616;39.754;2023-03-03T04:04:48;98724.03;;;23.00;29.26
74637;BME280;63141;54.616;39.754;2023-03-03T04:07:52;98723.06;;;23.01;29.21
74637;BME280;63141;54.616;39.754;2023-03-03T04:10:54;98721.16;;;23.03;28.62
74637;BME280;63141;54.616;39.754;2023-03-03T04:13:55;98718.41;;;23.05;28.66
74637;BME280;63141;54.616;39.754;2023-03-03T04:16:57;98721.06;;;23.05;28.41
74637;BME280;63141;54.616;39.754;2023-03-03T04:19:59;98713.94;;;23.05;28.18
74637;BME280;63141;54.616;39.754;2023-03-03T04:23:01;98719.16;;;23.07;28.42
74637;BME280;63141;54.616;39.754;2023-03-03T04:26:04;98718.28;;;23.06;28.72
74637;BME280;63141;54.616;39.754;2023-03-03T04:29:06;98711.22;;;23.07;29.12
74637;BME280;63141;54.616;39.754;2023-03-03T04:32:08;98708.56;;;23.07;29.16
74637;BME280;63141;54.616;39.754;2023-03-03T04:35:09;98709.38;;;23.07;29.01
74637;BME280;63141;54.616;39.754;2023-03-03T04:38:14;98702.28;;;23.08;28.97
74637;BME280;63141;54.616;39.754;2023-03-03T04:41:16;98707.59;;;23.08;28.99
74637;BME280;63141;54.616;39.754;2023-03-03T04:44:17;98704.94;;;23.08;29.05
74637;BME280;63141;54.616;39.754;2023-03-03T04:47:19;98720.41;;;23.01;28.46
74637;BME280;63141;54.616;39.754;2023-03-03T04:50:22;98713.53;;;22.84;27.93
74637;BME280;63141;54.616;39.754;2023-03-03T04:53:23;98713.22;;;22.62;27.66
74637;BME280;63141;54.616;39.754;2023-03-03T04:56:26;98707.78;;;22.36;27.25
74637;BME280;63141;54.616;39.754;2023-03-03T04:59:28;98699.16;;;22.18;27.24
74637;BME280;63141;54.616;39.754;2023-03-03T05:02:32;98697.38;;;22.04;27.06
74637;BME280;63141;54.616;39.754;2023-03-03T05:05:34;98703.41;;;21.92;26.80
74637;BME280;63141;54.616;39.754;2023-03-03T05:08:38;98709.47;;;21.80;26.57
74637;BME280;63141;54.616;39.754;2023-03-03T05:11:39;98711.72;;;21.71;26.35
74637;BME280;63141;54.616;39.754;2023-03-03T05:14:41;98713.91;;;21.65;26.20
74637;BME280;63141;54.616;39.754;2023-03-03T05:17:42;98713.50;;;21.57;26.29
74637;BME280;63141;54.616;39.754;2023-03-03T05:20:43;98704.31;;;21.48;26.18
74637;BME280;63141;54.616;39.754;2023-03-03T05:23:45;98706.88;;;21.49;26.05
74637;BME280;63141;54.616;39.754;2023-03-03T05:26:46;98707.38;;;21.56;26.33
74637;BME280;63141;54.616;39.754;2023-03-03T05:29:48;98708.69;;;21.63;26.83
74637;BME280;63141;54.616;39.754;2023-03-03T05:32:49;98700.19;;;21.72;26.95
74637;BME280;63141;54.616;39.754;2023-03-03T05:35:55;98699.63;;;21.82;26.75
74637;BME280;63141;54.616;39.754;2023-03-03T05:38:56;98702.97;;;21.85;26.69
74637;BME280;63141;54.616;39.754;2023-03-03T05:41:58;98701.72;;;21.91;26.57
74637;BME280;63141;54.616;39.754;2023-03-03T05:45:00;98702.19;;;21.98;26.80
74637;BME280;63141;54.616;39.754;2023-03-03T05:48:01;98701.81;;;22.04;26.76
74637;BME280;63141;54.616;39.754;2023-03-03T05:51:05;98689.97;;;22.09;26.81
74637;BME280;63141;54.616;39.754;2023-03-03T05:54:06;98688.84;;;22.13;26.60
74637;BME280;63141;54.616;39.754;2023-03-03T05:57:07;98698.31;;;22.17;26.69
74637;BME280;63141;54.616;39.754;2023-03-03T06:00:13;98688.63;;;22.16;26.46
74637;BME280;63141;54.616;39.754;2023-03-03T06:03:17;98690.72;;;22.11;26.26
74637;BME280;63141;54.616;39.754;2023-03-03T06:06:18;98691.66;;;22.10;26.15
74637;BME280;63141;54.616;39.754;2023-03-03T06:09:19;98682.50;;;22.02;25.94
74637;BME280;63141;54.616;39.754;2023-03-03T06:12:21;98685.31;;;21.99;25.95
74637;BME280;63141;54.616;39.754;2023-03-03T06:15:22;98690.53;;;22.00;25.77
74637;BME280;63141;54.616;39.754;2023-03-03T06:18:24;98682.50;;;22.02;25.89
74637;BME280;63141;54.616;39.754;2023-03-03T06:21:25;98687.81;;;22.02;25.82
74637;BME280;63141;54.616;39.754;2023-03-03T06:24:26;98685.25;;;22.00;25.77
74637;BME280;63141;54.616;39.754;2023-03-03T06:27:30;98688.84;;;21.99;25.67
74637;BME280;63141;54.616;39.754;2023-03-03T06:30:32;98697.72;;;21.98;25.55
74637;BME280;63141;54.616;39.754;2023-03-03T06:33:33;98686.19;;;21.99;25.67
74637;BME280;63141;54.616;39.754;2023-03-03T06:36:34;98684.56;;;21.96;25.46
74637;BME280;63141;54.616;39.754;2023-03-03T06:39:36;98678.41;;;21.96;25.43
74637;BME280;63141;54.616;39.754;2023-03-03T06:42:37;98678.41;;;21.96;25.25
74637;BME280;63141;54.616;39.754;2023-03-03T06:45:38;98674.84;;;21.97;25.23
74637;BME280;63141;54.616;39.754;2023-03-03T06:48:40;98673.13;;;21.96;25.05
74637;BME280;63141;54.616;39.754;2023-03-03T06:51:42;98676.72;;;21.95;25.26
74637;BME280;63141;54.616;39.754;2023-03-03T06:54:46;98668.78;;;21.95;24.98
74637;BME280;63141;54.616;39.754;2023-03-03T06:57:48;98664.41;;;21.94;25.20
74637;BME280;63141;54.616;39.754;2023-03-03T07:00:59;98669.69;;;21.94;25.16
74637;BME280;63141;54.616;39.754;2023-03-03T07:04:21;98670.56;;;21.94;24.97
74637;BME280;63141;54.616;39.754;2023-03-03T07:07:25;98662.63;;;21.94;25.02
74637;BME280;63141;54.616;39.754;2023-03-03T07:10:29;98673.22;;;21.94;24.98
74637;BME280;63141;54.616;39.754;2023-03-03T07:13:31;98664.41;;;21.94;24.88
74637;BME280;63141;54.616;39.754;2023-03-03T07:16:33;98663.56;;;21.93;24.83
74637;BME280;63141;54.616;39.754;2023-03-03T07:19:35;98663.47;;;21.95;25.03
74637;BME280;63141;54.616;39.754;2023-03-03T07:22:36;98663.34;;;21.96;24.94
74637;BME280;63141;54.616;39.754;2023-03-03T07:25:37;98654.47;;;21.98;24.87
74637;BME280;63141;54.616;39.754;2023-03-03T07:28:44;98658.16;;;21.95;24.65
74637;BME280;63141;54.616;39.754;2023-03-03T07:31:48;98655.81;;;21.90;24.51
74637;BME280;63141;54.616;39.754;2023-03-03T07:34:51;98658.63;;;21.87;24.60
74637;BME280;63141;54.616;39.754;2023-03-03T07:37:53;98660.44;;;21.87;24.40
74637;BME280;63141;54.616;39.754;2023-03-03T07:41:00;98665.72;;;21.87;24.58
74637;BME280;63141;54.616;39.754;2023-03-03T07:44:13;98656.09;;;21.86;24.35
74637;BME280;63141;54.616;39.754;2023-03-03T07:50:29;98655.41;;;21.82;24.01
74637;BME280;63141;54.616;39.754;2023-03-03T07:53:33;98664.41;;;21.80;23.92
74637;BME280;63141;54.616;39.754;2023-03-03T07:56:36;98663.75;;;21.76;23.89
74637;BME280;63141;54.616;39.754;2023-03-03T07:59:44;98663.84;;;21.74;23.76
74637;BME280;63141;54.616;39.754;2023-03-03T08:03:09;98662.13;;;21.73;23.68
74637;BME280;63141;54.616;39.754;2023-03-03T08:13:44;98666.69;;;21.86;23.84
74637;BME280;63141;54.616;39.754;2023-03-03T08:16:46;98660.81;;;21.95;23.86
74637;BME280;63141;54.616;39.754;2023-03-03T08:19:48;98673.59;;;22.03;23.76
74637;BME280;63141;54.616;39.754;2023-03-03T08:22:50;98668.75;;;22.09;23.67
74637;BME280;63141;54.616;39.754;2023-03-03T08:25:52;98673.69;;;22.15;23.63
74637;BME280;63141;54.616;39.754;2023-03-03T08:28:53;98673.31;;;22.22;23.65
74637;BME280;63141;54.616;39.754;2023-03-03T08:31:55;98667.81;;;22.25;23.86
74637;BME280;63141;54.616;39.754;2023-03-03T08:34:57;98664.03;;;22.29;23.85
74637;BME280;63141;54.616;39.754;2023-03-03T08:37:58;98677.00;;;22.33;23.77
74637;BME280;63141;54.616;39.754;2023-03-03T08:41:00;98666.19;;;22.36;23.86
74637;BME280;63141;54.616;39.754;2023-03-03T08:44:01;98670.44;;;22.39;23.81
74637;BME280;63141;54.616;39.754;2023-03-03T08:47:03;98667.56;;;22.42;23.84
74637;BME280;63141;54.616;39.754;2023-03-03T08:50:05;98671.00;;;22.44;24.03
74637;BME280;63141;54.616;39.754;2023-03-03T08:53:07;98666.44;;;22.46;23.97
74637;BME280;63141;54.616;39.754;2023-03-03T08:56:08;98671.53;;;22.49;23.94
74637;BME280;63141;54.616;39.754;2023-03-03T08:59:10;98668.78;;;22.51;24.19
74637;BME280;63141;54.616;39.754;2023-03-03T09:02:14;98679.19;;;22.54;24.13
74637;BME280;63141;54.616;39.754;2023-03-03T09:05:20;98679.19;;;22.54;24.26
74637;BME280;63141;54.616;39.754;2023-03-03T09:08:21;98682.50;;;22.57;24.18
74637;BME280;63141;54.616;39.754;2023-03-03T09:11:26;98672.66;;;22.59;24.15
74637;BME280;63141;54.616;39.754;2023-03-03T09:14:28;98669.03;;;22.61;24.18
74637;BME280;63141;54.616;39.754;2023-03-03T09:17:33;98665.44;;;22.62;24.19
74637;BME280;63141;54.616;39.754;2023-03-03T09:20:37;98670.66;;;22.63;24.34
74637;BME280;63141;54.616;39.754;2023-03-03T09:23:48;98664.41;;;22.64;24.44
74637;BME280;63141;54.616;39.754;2023-03-03T09:26:52;98665.91;;;22.68;24.96
74637;BME280;63141;54.616;39.754;2023-03-03T09:29:53;98668.34;;;22.71;25.22
74637;BME280;63141;54.616;39.754;2023-03-03T09:32:56;98670.78;;;22.74;25.61
74637;BME280;63141;54.616;39.754;2023-03-03T09:39:23;98662.34;;;22.82;26.36
74637;BME280;63141;54.616;39.754;2023-03-03T09:49:33;98663.84;;;22.86;26.47
74637;BME280;63141;54.616;39.754;2023-03-03T09:56:10;98671.91;;;22.85;26.04
74637;BME280;63141;54.616;39.754;2023-03-03T09:59:39;98660.44;;;22.84;26.22
74637;BME280;63141;54.616;39.754;2023-03-03T10:12:58;98665.75;;;22.84;25.95
74637;BME280;63141;54.616;39.754;2023-03-03T10:22:55;98667.44;;;22.85;25.93
74637;BME280;63141;54.616;39.754;2023-03-03T10:32:32;98662.03;;;22.87;25.62
74637;BME280;63141;54.616;39.754;2023-03-03T10:35:57;98662.03;;;22.87;25.75
74637;BME280;63141;54.616;39.754;2023-03-03T10:59:40;98677.84;;;22.88;25.65
74637;BME280;63141;54.616;39.754;2023-03-03T11:06:33;98689.22;;;22.90;25.48
74637;BME280;63141;54.616;39.754;2023-03-03T11:13:35;98686.56;;;22.90;25.66
74637;BME280;63141;54.616;39.754;2023-03-03T11:17:15;98684.78;;;22.91;25.67
74637;BME280;63141;54.616;39.754;2023-03-03T11:29:53;98697.94;;;22.92;25.65
74637;BME280;63141;54.616;39.754;2023-03-03T11:33:13;98702.31;;;22.93;25.42
74637;BME280;63141;54.616;39.754;2023-03-03T11:36:20;98711.22;;;22.92;25.63
74637;BME280;63141;54.616;39.754;2023-03-03T11:39:25;98706.09;;;22.89;25.36
74637;BME280;63141;54.616;39.754;2023-03-03T11:42:38;98704.81;;;22.82;25.55
74637;BME280;63141;54.616;39.754;2023-03-03T11:46:14;98708.91;;;22.73;25.16
74637;BME280;63141;54.616;39.754;2023-03-03T11:49:26;98703.16;;;22.67;25.03
74637;BME280;63141;54.616;39.754;2023-03-03T11:52:54;98712.47;;;22.59;24.89
74637;BME280;63141;54.616;39.754;2023-03-03T11:56:26;98702.34;;;22.52;24.80
74637;BME280;63141;54.616;39.754;2023-03-03T12:26:40;98702.19;;;22.26;24.32
74637;BME280;63141;54.616;39.754;2023-03-03T12:40:06;98696.16;;;22.24;24.64
74637;BME280;63141;54.616;39.754;2023-03-03T12:56:49;98711.94;;;22.26;25.40
74637;BME280;63141;54.616;39.754;2023-03-03T13:03:37;98704.75;;;22.28;25.93
74637;BME280;63141;54.616;39.754;2023-03-03T13:10:07;98709.97;;;22.29;27.27
74637;BME280;63141;54.616;39.754;2023-03-03T13:17:00;98712.34;;;22.34;29.31
74637;BME280;63141;54.616;39.754;2023-03-03T13:20:15;98707.03;;;22.34;31.25
74637;BME280;63141;54.616;39.754;2023-03-03T13:23:34;98707.78;;;22.36;31.47
74637;BME280;63141;54.616;39.754;2023-03-03T13:26:44;98700.75;;;22.35;32.16
74637;BME280;63141;54.616;39.754;2023-03-03T13:36:10;98700.88;;;22.33;34.35
74637;BME280;63141;54.616;39.754;2023-03-03T13:39:21;98704.38;;;22.34;34.36
74637;BME280;63141;54.616;39.754;2023-03-03T13:42:36;98701.81;;;22.32;34.69
74637;BME280;63141;54.616;39.754;2023-03-03T13:49:24;98693.94;;;22.31;34.98
74637;BME280;63141;54.616;39.754;2023-03-03T13:52:32;98693.94;;;22.31;35.80
74637;BME280;63141;54.616;39.754;2023-03-03T13:55:52;98693.00;;;22.32;35.76
74637;BME280;63141;54.616;39.754;2023-03-03T14:02:56;98700.88;;;22.33;37.08
74637;BME280;63141;54.616;39.754;2023-03-03T14:06:18;98693.84;;;22.32;38.40
74637;BME280;63141;54.616;39.754;2023-03-03T14:09:40;98693.56;;;22.37;38.45
74637;BME280;63141;54.616;39.754;2023-03-03T14:16:08;98680.66;;;22.45;38.40
74637;BME280;63141;54.616;39.754;2023-03-03T14:19:23;98690.09;;;22.49;38.04
74637;BME280;63141;54.616;39.754;2023-03-03T14:22:41;98693.44;;;22.53;37.88
74637;BME280;63141;54.616;39.754;2023-03-03T14:26:09;98698.53;;;22.56;37.72
74637;BME280;63141;54.616;39.754;2023-03-03T14:32:29;98690.25;;;22.61;37.20
74637;BME280;63141;54.616;39.754;2023-03-03T14:35:39;98684.78;;;22.64;37.12
74637;BME280;63141;54.616;39.754;2023-03-03T14:38:44;98691.78;;;22.65;36.69
74637;BME280;63141;54.616;39.754;2023-03-03T14:41:46;98691.59;;;22.68;36.12
74637;BME280;63141;54.616;39.754;2023-03-03T14:44:54;98699.25;;;22.72;35.87
74637;BME280;63141;54.616;39.754;2023-03-03T14:47:56;98701.78;;;22.74;35.67
74637;BME280;63141;54.616;39.754;2023-03-03T14:51:16;98710.50;;;22.76;35.54
74637;BME280;63141;54.616;39.754;2023-03-03T14:54:27;98707.78;;;22.77;35.50
74637;BME280;63141;54.616;39.754;2023-03-03T15:00:46;98738.56;;;22.80;36.60
74637;BME280;63141;54.616;39.754;2023-03-03T15:04:00;98731.34;;;22.82;37.17
74637;BME280;63141;54.616;39.754;2023-03-03T15:07:24;98751.53;;;22.85;37.38
74637;BME280;63141;54.616;39.754;2023-03-03T15:10:34;98756.75;;;22.86;38.29
74637;BME280;63141;54.616;39.754;2023-03-03T15:13:37;98754.09;;;22.86;38.68
74637;BME280;63141;54.616;39.754;2023-03-03T15:16:39;98750.47;;;22.87;39.58
74637;BME280;63141;54.616;39.754;2023-03-03T15:19:53;98748.69;;;22.88;40.00
74637;BME280;63141;54.616;39.754;2023-03-03T15:26:32;98763.56;;;22.90;41.06
74637;BME280;63141;54.616;39.754;2023-03-03T15:29:44;98760.91;;;22.90;40.82
74637;BME280;63141;54.616;39.754;2023-03-03T15:52:55;98781.97;;;22.93;37.84
74637;BME280;63141;54.616;39.754;2023-03-03T16:03:35;98782.88;;;22.92;36.40
74637;BME280;63141;54.616;39.754;2023-03-03T16:07:09;98785.53;;;22.92;36.28
74637;BME280;63141;54.616;39.754;2023-03-03T16:10:21;98777.69;;;22.91;35.98
74637;BME280;63141;54.616;39.754;2023-03-03T16:13:48;98772.41;;;22.91;35.88
74637;BME280;63141;54.616;39.754;2023-03-03T16:20:56;98767.94;;;22.91;35.69
74637;BME280;63141;54.616;39.754;2023-03-03T16:27:42;98760.91;;;22.90;35.27
74637;BME280;63141;54.616;39.754;2023-03-03T16:30:52;98767.94;;;22.91;35.03
74637;BME280;63141;54.616;39.754;2023-03-03T16:34:23;98769.75;;;22.91;34.92
74637;BME280;63141;54.616;39.754;2023-03-03T16:37:35;98771.50;;;22.90;34.72
74637;BME280;63141;54.616;39.754;2023-03-03T16:40:47;98771.50;;;22.90;34.67
74637;BME280;63141;54.616;39.754;2023-03-03T16:44:29;98769.63;;;22.92;34.60
74637;BME280;63141;54.616;39.754;2023-03-03T16:47:54;98771.72;;;23.02;34.90
74637;BME280;63141;54.616;39.754;2023-03-03T16:54:02;98765.69;;;23.12;34.84
74637;BME280;63141;54.616;39.754;2023-03-03T16:57:10;98775.72;;;23.21;34.68
74637;BME280;63141;54.616;39.754;2023-03-03T17:01:00;98768.09;;;23.30;34.35
74637;BME280;63141;54.616;39.754;2023-03-03T17:04:39;98766.44;;;23.41;34.36
74637;BME280;63141;54.616;39.754;2023-03-03T17:20:59;98764.97;;;23.63;33.89
74637;BME280;63141;54.616;39.754;2023-03-03T17:34:14;98767.38;;;23.80;33.66
74637;BME280;63141;54.616;39.754;2023-03-03T17:37:52;98764.50;;;23.83;33.24
74637;BME280;63141;54.616;39.754;2023-03-03T17:41:18;98759.72;;;23.89;33.26
74637;BME280;63141;54.616;39.754;2023-03-03T17:48:08;98753.13;;;23.94;32.94
74637;BME280;63141;54.616;39.754;2023-03-03T17:51:23;98755.66;;;23.96;32.82
74637;BME280;63141;54.616;39.754;2023-03-03T17:58:36;98757.16;;;24.00;32.71
74637;BME280;63141;54.616;39.754;2023-03-03T18:02:04;98752.50;;;24.03;32.37
74637;BME280;63141;54.616;39.754;2023-03-03T18:05:33;98752.03;;;24.10;32.49
74637;BME280;63141;54.616;39.754;2023-03-03T18:25:55;98745.69;;;24.12;31.94
74637;BME280;63141;54.616;39.754;2023-03-03T18:32:20;98743.97;;;24.11;32.25
74637;BME280;63141;54.616;39.754;2023-03-03T18:35:42;98748.44;;;24.11;32.14
74637;BME280;63141;54.616;39.754;2023-03-03T18:38:45;98754.59;;;24.11;32.33
74637;BME280;63141;54.616;39.754;2023-03-03T18:42:08;98749.81;;;24.16;32.44
74637;BME280;63141;54.616;39.754;2023-03-03T18:48:18;98757.59;;;24.19;32.27
74637;BME280;63141;54.616;39.754;2023-03-03T18:54:39;98749.91;;;24.28;32.22
74637;BME280;63141;54.616;39.754;2023-03-03T18:58:01;98753.09;;;24.33;32.15
74637;BME280;63141;54.616;39.754;2023-03-03T19:04:35;98752.56;;;24.28;31.48
74637;BME280;63141;54.616;39.754;2023-03-03T19:11:00;98753.22;;;24.18;31.38
74637;BME280;63141;54.616;39.754;2023-03-03T19:20:44;98751.84;;;24.00;31.09
74637;BME280;63141;54.616;39.754;2023-03-03T19:23:53;98750.56;;;23.93;31.06
74637;BME280;63141;54.616;39.754;2023-03-03T19:27:23;98742.06;;;23.88;31.01
74637;BME280;63141;54.616;39.754;2023-03-03T19:34:11;98742.91;;;23.75;30.96
74637;BME280;63141;54.616;39.754;2023-03-03T19:40:33;98743.41;;;23.68;30.89
74637;BME280;63141;54.616;39.754;2023-03-03T19:47:09;98735.00;;;23.61;30.64
74637;BME280;63141;54.616;39.754;2023-03-03T19:57:16;98729.25;;;23.54;30.44
74637;BME280;63141;54.616;39.754;2023-03-03T20:00:41;98724.97;;;23.52;30.42
74637;BME280;63141;54.616;39.754;2023-03-03T20:07:12;98723.50;;;23.48;30.02
74637;BME280;63141;54.616;39.754;2023-03-03T20:10:36;98722.00;;;23.44;30.05
74637;BME280;63141;54.616;39.754;2023-03-03T20:13:45;98713.28;;;23.41;29.97
74637;BME280;63141;54.616;39.754;2023-03-03T20:16:53;98712.44;;;23.41;30.03
74637;BME280;63141;54.616;39.754;2023-03-03T20:23:28;98715.38;;;23.36;29.82
74637;BME280;63141;54.616;39.754;2023-03-03T20:30:16;98715.59;;;23.33;30.01
74637;BME280;63141;54.616;39.754;2023-03-03T20:37:03;98710.50;;;23.30;29.65
74637;BME280;63141;54.616;39.754;2023-03-03T20:43:49;98702.63;;;23.29;29.49
74637;BME280;63141;54.616;39.754;2023-03-03T20:57:20;98695.72;;;23.26;29.64
74637;BME280;63141;54.616;39.754;2023-03-03T21:00:51;98698.38;;;23.26;29.80
74637;BME280;63141;54.616;39.754;2023-03-03T21:04:17;98695.81;;;23.25;29.60
74637;BME280;63141;54.616;39.754;2023-03-03T21:07:23;98689.75;;;23.23;29.55
74637;BME280;63141;54.616;39.754;2023-03-03T21:10:27;98683.59;;;23.22;29.54
74637;BME280;63141;54.616;39.754;2023-03-03T21:13:40;98680.94;;;23.22;29.55
74637;BME280;63141;54.616;39.754;2023-03-03T21:16:42;98674.78;;;23.21;29.58
74637;BME280;63141;54.616;39.754;2023-03-03T21:19:44;98677.53;;;23.20;29.51
74637;BME280;63141;54.616;39.754;2023-03-03T21:22:45;98671.38;;;23.19;29.48
74637;BME280;63141;54.616;39.754;2023-03-03T21:25:51;98667.88;;;23.19;29.30
74637;BME280;63141;54.616;39.754;2023-03-03T21:29:00;98674.13;;;23.18;29.41
74637;BME280;63141;54.616;39.754;2023-03-03T21:32:04;98674.13;;;23.18;29.48
74637;BME280;63141;54.616;39.754;2023-03-03T21:35:13;98661.81;;;23.17;29.39
74637;BME280;63141;54.616;39.754;2023-03-03T21:38:31;98664.47;;;23.17;29.54
74637;BME280;63141;54.616;39.754;2023-03-03T21:41:56;98661.81;;;23.17;29.34
74637;BME280;63141;54.616;39.754;2023-03-03T21:45:11;98654.81;;;23.16;29.42
74637;BME280;63141;54.616;39.754;2023-03-03T21:51:14;98662.03;;;23.14;29.54
74637;BME280;63141;54.616;39.754;2023-03-03T21:54:16;98660.31;;;23.13;29.41
74637;BME280;63141;54.616;39.754;2023-03-03T21:57:17;98662.03;;;23.14;29.42
74637;BME280;63141;54.616;39.754;2023-03-03T22:00:19;98660.31;;;23.13;29.43
74637;BME280;63141;54.616;39.754;2023-03-03T22:03:25;98653.31;;;23.12;29.51